createdAt,value
2022-09-18T00:02:21.207Z,11.00
2022-09-18T00:04:47.927Z,11.00
2022-09-18T00:07:14.593Z,10.90
2022-09-18T00:09:41.251Z,11.00
2022-09-18T00:12:07.947Z,11.00
2022-09-18T00:14:34.594Z,10.90
2022-09-18T00:17:06.960Z,10.90
2022-09-18T00:19:35.570Z,11.10
2022-09-18T00:22:02.172Z,11.10
2022-09-18T00:24:28.945Z,11.20
2022-09-18T00:26:55.614Z,11.30
2022-09-18T00:29:22.303Z,11.30
2022-09-18T00:31:49.124Z,11.20
2022-09-18T00:34:16.152Z,11.10
2022-09-18T00:36:43.724Z,11.00
2022-09-18T00:39:11.035Z,11.00
2022-09-18T00:41:40.856Z,11.10
2022-09-18T00:44:31.607Z,11.10
2022-09-18T00:47:10.275Z,11.10
2022-09-18T00:49:49.871Z,11.10
2022-09-18T00:52:19.776Z,10.90
2022-09-18T00:54:55.190Z,11.00
2022-09-18T00:57:30.047Z,10.80
2022-09-18T00:59:58.030Z,10.70
2022-09-18T01:02:24.718Z,10.70
2022-09-18T01:04:51.718Z,10.70
2022-09-18T01:07:30.530Z,10.70
2022-09-18T01:10:05.868Z,10.90
2022-09-18T01:12:56.467Z,10.70
2022-09-18T01:15:52.979Z,10.70
2022-09-18T01:18:46.455Z,10.70
2022-09-18T01:21:14.170Z,10.80
2022-09-18T01:24:08.447Z,10.90
2022-09-18T01:26:50.091Z,10.80
2022-09-18T01:29:20.799Z,10.80
2022-09-18T01:32:03.128Z,10.70
2022-09-18T01:34:47.306Z,10.90
2022-09-18T01:37:41.915Z,11.00
2022-09-18T01:40:24.700Z,10.80
2022-09-18T01:42:53.007Z,10.70
2022-09-18T01:45:31.435Z,10.60
2022-09-18T01:48:01.880Z,10.80
2022-09-18T01:50:32.938Z,10.70
2022-09-18T01:53:17.802Z,10.60
2022-09-18T01:55:50.240Z,10.80
2022-09-18T01:58:20.815Z,10.90
2022-09-18T02:00:54.100Z,10.70
2022-09-18T02:03:25.308Z,10.50
2022-09-18T02:05:56.751Z,10.60
2022-09-18T02:08:44.328Z,10.70
2022-09-18T02:11:13.527Z,10.40
2022-09-18T02:14:05.436Z,10.50
2022-09-18T02:16:42.302Z,10.50
2022-09-18T02:19:37.961Z,10.70
2022-09-18T02:22:08.995Z,10.60
2022-09-18T02:58:24.992Z,10.60
2022-09-18T03:00:52.256Z,10.70
2022-09-18T03:03:19.084Z,10.50
2022-09-18T03:05:45.935Z,10.30
2022-09-18T03:08:12.614Z,10.50
2022-09-18T03:10:39.251Z,10.30
2022-09-18T03:13:05.980Z,10.40
2022-09-18T03:15:32.709Z,10.50
2022-09-18T03:17:59.338Z,10.50
2022-09-18T03:20:26.031Z,10.50
2022-09-18T03:22:52.762Z,10.60
2022-09-18T03:25:19.423Z,10.70
2022-09-18T03:27:46.147Z,10.40
2022-09-18T03:30:12.983Z,10.40
2022-09-18T03:32:39.587Z,10.40
2022-09-18T03:35:07.957Z,10.30
2022-09-18T03:37:34.595Z,10.20
2022-09-18T03:40:01.472Z,10.20
2022-09-18T03:42:28.098Z,10.20
2022-09-18T03:44:56.326Z,10.20
2022-09-18T03:47:23.468Z,10.20
2022-09-18T03:49:50.269Z,10.20
2022-09-18T03:52:16.931Z,10.20
2022-09-18T03:54:43.659Z,10.20
2022-09-18T03:57:11.446Z,10.20
2022-09-18T03:59:38.095Z,10.10
2022-09-18T04:02:04.920Z,10.10
2022-09-18T04:04:31.754Z,10.20
2022-09-18T04:06:58.442Z,10.10
2022-09-18T04:09:25.016Z,10.00
2022-09-18T04:11:51.680Z,10.10
2022-09-18T04:14:18.291Z,10.20
2022-09-18T04:16:44.890Z,10.20
2022-09-18T04:19:11.658Z,10.20
2022-09-18T04:21:38.912Z,10.20
2022-09-18T04:24:06.194Z,10.00
2022-09-18T04:26:36.641Z,10.20
2022-09-18T04:29:04.130Z,10.20
2022-09-18T04:31:30.809Z,10.20
2022-09-18T04:33:57.974Z,10.20
2022-09-18T04:36:24.584Z,10.20
2022-09-18T04:38:51.243Z,10.20
2022-09-18T04:41:17.870Z,10.10
2022-09-18T04:43:44.739Z,10.10
2022-09-18T04:46:11.445Z,10.10
2022-09-18T04:48:38.162Z,10.00
2022-09-18T04:51:04.875Z,10.10
2022-09-18T04:53:32.085Z,10.10
2022-09-18T04:55:58.819Z,10.00
2022-09-18T04:58:25.479Z,10.10
2022-09-18T05:00:52.187Z,10.00
2022-09-18T05:03:20.987Z,10.00
2022-09-18T05:05:48.218Z,10.10
2022-09-18T05:08:14.858Z,10.10
2022-09-18T05:10:42.779Z,10.00
2022-09-18T05:13:09.998Z,9.90
2022-09-18T05:15:36.604Z,10.00
2022-09-18T05:18:11.116Z,10.10
2022-09-18T05:20:38.281Z,10.20
2022-09-18T05:23:05.927Z,10.30
2022-09-18T05:25:32.574Z,10.30
2022-09-18T05:28:01.228Z,10.20
2022-09-18T05:30:28.541Z,10.40
2022-09-18T05:33:09.802Z,10.20
2022-09-18T05:35:37.452Z,10.20
2022-09-18T05:38:04.334Z,10.20
2022-09-18T05:40:37.239Z,10.20
2022-09-18T05:43:05.582Z,10.20
2022-09-18T05:45:32.399Z,10.20
2022-09-18T05:48:01.398Z,10.10
2022-09-18T05:50:29.660Z,10.20
2022-09-18T05:53:14.048Z,10.10
2022-09-18T05:55:41.418Z,10.40
2022-09-18T05:58:13.096Z,10.30
2022-09-18T06:00:39.800Z,10.00
2022-09-18T06:03:09.456Z,10.10
2022-09-18T06:05:37.625Z,10.20
2022-09-18T06:08:06.578Z,10.30
2022-09-18T06:10:37.093Z,10.40
2022-09-18T06:13:13.166Z,10.30
2022-09-18T06:15:39.921Z,10.40
2022-09-18T06:18:09.085Z,10.60
2022-09-18T06:20:36.067Z,10.40
2022-09-18T06:23:02.910Z,10.50
2022-09-18T06:25:30.518Z,10.60
2022-09-18T06:27:58.873Z,10.50
2022-09-18T06:30:34.611Z,10.70
2022-09-18T06:33:07.340Z,10.90
2022-09-18T06:35:35.549Z,10.70
2022-09-18T06:38:03.551Z,10.80
2022-09-18T06:40:31.296Z,10.60
2022-09-18T06:42:59.876Z,10.60
2022-09-18T06:45:26.532Z,10.80
2022-09-18T06:47:54.327Z,10.80
2022-09-18T06:50:25.130Z,10.80
2022-09-18T06:52:52.045Z,10.80
2022-09-18T06:55:19.108Z,11.00
2022-09-18T06:57:55.725Z,10.90
2022-09-18T07:00:23.130Z,10.70
2022-09-18T07:03:01.282Z,10.40
2022-09-18T07:05:31.101Z,10.40
2022-09-18T07:07:57.794Z,10.50
2022-09-18T07:10:24.839Z,10.50
2022-09-18T07:12:59.044Z,10.70
2022-09-18T07:15:26.756Z,10.80
2022-09-18T07:18:01.792Z,10.70
2022-09-18T07:20:29.582Z,10.80
2022-09-18T07:22:58.683Z,10.80
2022-09-18T07:25:31.243Z,10.90
2022-09-18T07:28:05.225Z,10.80
2022-09-18T07:30:31.870Z,10.80
2022-09-18T07:32:58.532Z,10.80
2022-09-18T07:35:25.183Z,11.00
2022-09-18T07:37:51.810Z,11.00
2022-09-18T07:40:18.634Z,11.10
2022-09-18T07:42:45.370Z,11.20
2022-09-18T07:45:12.984Z,11.20
2022-09-18T07:47:39.807Z,11.30
2022-09-18T07:50:07.083Z,11.20
2022-09-18T07:52:33.694Z,11.40
2022-09-18T07:55:00.331Z,11.40
2022-09-18T07:57:27.096Z,11.50
2022-09-18T07:59:53.851Z,11.60
2022-09-18T08:02:20.571Z,11.50
2022-09-18T08:04:47.287Z,11.60
2022-09-18T08:07:13.966Z,11.50
2022-09-18T08:09:41.468Z,11.60
2022-09-18T08:12:08.396Z,11.70
2022-09-18T08:14:34.986Z,11.70
2022-09-18T08:17:04.136Z,11.80
2022-09-18T08:19:30.982Z,11.80
2022-09-18T08:21:57.646Z,11.90
2022-09-18T08:24:24.526Z,11.80
2022-09-18T08:26:51.206Z,11.90
2022-09-18T08:29:20.519Z,11.90
2022-09-18T08:31:47.465Z,12.00
2022-09-18T08:34:14.219Z,11.90
2022-09-18T08:36:40.877Z,12.00
2022-09-18T08:39:07.746Z,11.90
2022-09-18T08:42:13.895Z,12.10
2022-09-18T08:44:50.739Z,12.20
2022-09-18T08:47:25.573Z,12.10
2022-09-18T08:49:57.615Z,12.20
2022-09-18T08:52:28.861Z,12.30
2022-09-18T08:55:21.627Z,12.30
2022-09-18T08:57:54.208Z,12.40
2022-09-18T09:00:26.902Z,12.30
2022-09-18T09:03:02.418Z,12.20
2022-09-18T09:05:37.719Z,12.30
2022-09-18T09:08:26.999Z,12.30
2022-09-18T09:11:17.330Z,12.50
2022-09-18T09:14:14.990Z,12.50
2022-09-18T09:16:44.064Z,12.50
2022-09-18T09:19:40.748Z,12.40
2022-09-18T09:22:31.830Z,12.50
2022-09-18T09:25:13.512Z,12.70
2022-09-18T09:27:49.198Z,12.80
2022-09-18T09:30:21.493Z,12.80
2022-09-18T09:32:55.425Z,12.90
2022-09-18T09:35:32.470Z,13.00
2022-09-18T09:38:10.899Z,13.00
2022-09-18T09:40:47.643Z,13.00
2022-09-18T09:43:22.896Z,12.90
2022-09-18T09:45:52.328Z,13.00
2022-09-18T09:48:24.870Z,12.90
2022-09-18T09:51:06.771Z,12.80
2022-09-18T09:53:33.747Z,13.00
2022-09-18T09:56:06.352Z,13.00
2022-09-18T09:58:44.859Z,13.00
2022-09-18T10:01:31.494Z,13.50
2022-09-18T10:04:18.787Z,13.40
2022-09-18T10:07:04.248Z,13.60
2022-09-18T10:09:36.792Z,13.60
2022-09-18T10:12:22.271Z,13.70
2022-09-18T10:14:51.700Z,13.50
2022-09-18T10:17:21.326Z,13.50
2022-09-18T10:19:48.449Z,13.50
2022-09-18T10:22:22.891Z,13.60
2022-09-18T10:24:58.693Z,13.70
2022-09-18T10:27:25.455Z,13.70
2022-09-18T10:29:55.689Z,13.60
2022-09-18T10:32:36.976Z,13.60
2022-09-18T10:35:32.983Z,13.90
2022-09-18T10:37:59.714Z,14.20
2022-09-18T10:40:39.596Z,14.50
2022-09-18T10:43:18.487Z,14.50
2022-09-18T10:45:55.027Z,14.40
2022-09-18T10:48:26.575Z,14.40
2022-09-18T10:50:54.550Z,14.70
2022-09-18T10:53:32.571Z,14.90
2022-09-18T10:56:16.814Z,15.60
2022-09-18T10:58:44.841Z,15.30
2022-09-18T11:01:12.749Z,15.40
2022-09-18T11:03:47.825Z,15.40
2022-09-18T11:06:27.810Z,15.30
2022-09-18T11:09:00.868Z,15.20
2022-09-18T11:11:34.229Z,15.30
2022-09-18T11:14:06.272Z,15.90
2022-09-18T11:16:43.775Z,15.90
2022-09-18T11:19:10.962Z,15.60
2022-09-18T11:21:48.943Z,15.20
2022-09-18T11:24:25.882Z,15.30
2022-09-18T11:26:54.983Z,15.20
2022-09-18T11:29:27.798Z,15.20
2022-09-18T11:31:54.449Z,15.20
2022-09-18T11:34:37.783Z,15.60
2022-09-18T11:37:11.736Z,15.80
2022-09-18T11:39:49.827Z,15.80
2022-09-18T11:42:17.566Z,15.90
2022-09-18T11:44:44.778Z,16.30
2022-09-18T11:47:26.746Z,15.50
2022-09-18T11:50:15.339Z,15.10
2022-09-18T11:52:54.510Z,15.30
2022-09-18T11:55:40.810Z,16.00
2022-09-18T11:58:31.904Z,15.90
2022-09-18T12:01:05.072Z,15.60
2022-09-18T12:03:37.379Z,15.00
2022-09-18T12:06:17.487Z,15.40
2022-09-18T12:08:46.377Z,15.50
2022-09-18T12:11:32.173Z,15.50
2022-09-18T12:14:08.887Z,16.30
2022-09-18T12:16:53.771Z,16.40
2022-09-18T12:19:49.124Z,17.30
2022-09-18T12:22:20.654Z,17.10
2022-09-18T12:24:49.274Z,17.20
2022-09-18T12:27:43.339Z,17.20
2022-09-18T12:30:17.974Z,16.50
2022-09-18T12:32:53.555Z,16.00
2022-09-18T12:35:25.757Z,15.70
2022-09-18T12:37:59.535Z,15.90
2022-09-18T12:40:41.003Z,16.80
2022-09-18T12:43:36.886Z,17.10
2022-09-18T12:46:09.405Z,17.10
2022-09-18T12:48:54.365Z,17.50
2022-09-18T12:51:23.699Z,17.80
2022-09-18T12:54:27.738Z,18.00
2022-09-18T12:57:02.999Z,18.30
2022-09-18T12:59:48.036Z,18.50
2022-09-18T13:02:23.479Z,16.90
2022-09-18T13:05:16.211Z,17.10
2022-09-18T13:07:51.493Z,16.60
2022-09-18T13:10:45.430Z,16.60
2022-09-18T13:13:17.718Z,16.70
2022-09-18T13:16:03.499Z,16.40
2022-09-18T13:18:52.871Z,16.60
2022-09-18T13:21:29.702Z,16.50
2022-09-18T13:23:57.502Z,16.60
2022-09-18T13:26:28.381Z,16.90
2022-09-18T13:28:55.259Z,16.90
2022-09-18T13:31:29.753Z,16.90
2022-09-18T13:34:05.880Z,17.10
2022-09-18T13:36:35.754Z,17.90
2022-09-18T13:39:24.132Z,18.30
2022-09-18T13:41:54.250Z,18.10
2022-09-18T13:44:23.111Z,18.10
2022-09-18T13:46:52.139Z,17.90
2022-09-18T13:49:24.870Z,17.60
2022-09-18T13:51:51.666Z,17.00
2022-09-18T13:54:22.182Z,16.90
2022-09-18T13:57:14.575Z,16.50
2022-09-18T13:59:45.501Z,16.60
2022-09-18T14:02:31.169Z,16.40
2022-09-18T14:05:25.130Z,15.90
2022-09-18T14:07:55.442Z,15.90
2022-09-18T14:11:05.069Z,15.80
2022-09-18T14:13:39.766Z,15.80
2022-09-18T14:16:23.835Z,15.90
2022-09-18T14:19:01.548Z,16.00
2022-09-18T14:21:34.085Z,15.80
2022-09-18T14:24:05.852Z,15.60
2022-09-18T14:26:34.574Z,15.70
2022-09-18T14:29:10.438Z,15.70
2022-09-18T14:31:55.333Z,15.70
2022-09-18T14:34:25.090Z,15.60
2022-09-18T14:36:55.409Z,15.50
2022-09-18T14:39:30.344Z,15.60
2022-09-18T14:42:31.944Z,15.40
2022-09-18T14:45:18.423Z,15.40
2022-09-18T14:47:47.058Z,15.50
2022-09-18T14:50:27.064Z,15.50
2022-09-18T14:52:54.687Z,15.40
2022-09-18T14:55:26.879Z,15.40
2022-09-18T14:58:04.467Z,15.40
2022-09-18T15:00:33.796Z,15.20
2022-09-18T15:03:18.478Z,15.20
2022-09-18T15:05:48.053Z,15.10
2022-09-18T15:08:25.825Z,15.20
2022-09-18T15:10:56.438Z,15.10
2022-09-18T15:13:23.149Z,15.10
2022-09-18T15:16:04.088Z,15.10
2022-09-18T15:18:39.943Z,15.10
2022-09-18T15:21:17.935Z,15.00
2022-09-18T15:23:44.637Z,15.10
2022-09-18T15:26:14.763Z,15.10
2022-09-18T15:28:44.653Z,15.10
2022-09-18T15:31:13.845Z,15.00
2022-09-18T15:33:48.969Z,15.00
2022-09-18T15:36:30.478Z,15.00
2022-09-18T15:38:58.182Z,15.00
2022-09-18T15:41:41.659Z,15.00
2022-09-18T15:44:39.594Z,15.10
2022-09-18T15:47:30.475Z,15.00
2022-09-18T15:49:58.978Z,15.00
2022-09-18T15:52:57.077Z,15.00
2022-09-18T15:56:00.724Z,15.00
2022-09-18T15:58:36.904Z,15.00
2022-09-18T16:01:06.704Z,14.90
2022-09-18T16:03:40.650Z,14.90
2022-09-18T16:06:08.474Z,14.90
2022-09-18T16:08:37.594Z,15.00
2022-09-18T16:11:06.319Z,15.00
2022-09-18T16:13:38.725Z,15.00
2022-09-18T16:16:11.698Z,15.00
2022-09-18T16:18:56.836Z,14.80
2022-09-18T16:21:26.737Z,14.70
2022-09-18T16:24:01.197Z,14.70
2022-09-18T16:26:33.259Z,14.70
2022-09-18T16:29:05.581Z,14.70
2022-09-18T16:31:34.902Z,14.60
2022-09-18T16:34:19.647Z,14.60
2022-09-18T16:36:47.234Z,14.60
2022-09-18T16:39:16.568Z,14.60
2022-09-18T16:41:43.742Z,14.50
2022-09-18T16:44:12.730Z,14.60
2022-09-18T16:47:03.439Z,14.50
2022-09-18T16:49:37.035Z,14.50
2022-09-18T16:52:04.382Z,14.40
2022-09-18T16:54:31.238Z,14.40
2022-09-18T16:57:12.879Z,14.50
2022-09-18T16:59:41.663Z,14.50
2022-09-18T17:02:09.211Z,14.40
2022-09-18T17:04:35.865Z,14.30
2022-09-18T17:07:03.106Z,14.30
2022-09-18T17:09:29.910Z,14.30
2022-09-18T17:11:56.975Z,14.20
2022-09-18T17:14:24.496Z,14.20
2022-09-18T17:16:51.770Z,14.20
2022-09-18T17:19:18.998Z,14.20
2022-09-18T17:21:45.781Z,14.20
2022-09-18T17:24:12.907Z,14.10
2022-09-18T17:26:40.835Z,14.10
2022-09-18T17:29:10.285Z,14.00
2022-09-18T17:31:36.958Z,14.00
2022-09-18T17:34:03.708Z,14.00
2022-09-18T17:36:30.918Z,13.90
2022-09-18T17:39:01.731Z,14.00
2022-09-18T17:41:29.204Z,14.00
2022-09-18T17:43:55.819Z,13.90
2022-09-18T17:46:22.547Z,13.90
2022-09-18T17:48:53.292Z,13.80
2022-09-18T17:51:20.079Z,13.90
2022-09-18T17:53:48.320Z,13.90
2022-09-18T17:56:18.151Z,13.80
2022-09-18T17:58:45.507Z,13.80
2022-09-18T18:01:20.170Z,13.80
2022-09-18T18:03:48.335Z,13.80
2022-09-18T18:06:20.987Z,13.70
2022-09-18T18:08:48.471Z,13.70
2022-09-18T18:11:16.731Z,13.70
2022-09-18T18:13:44.980Z,13.70
2022-09-18T18:16:14.817Z,13.70
2022-09-18T18:18:42.901Z,13.70
2022-09-18T18:21:10.583Z,13.70
2022-09-18T18:23:38.346Z,13.60
2022-09-18T18:26:07.503Z,13.70
2022-09-18T18:28:35.309Z,13.60
2022-09-18T18:31:07.070Z,13.70
2022-09-18T18:33:35.196Z,13.60
2022-09-18T18:36:15.289Z,13.60
2022-09-18T18:38:43.799Z,13.70
2022-09-18T18:41:12.298Z,13.70
2022-09-18T18:43:42.757Z,13.70
2022-09-18T18:46:15.288Z,13.70
2022-09-18T18:48:42.859Z,13.60
2022-09-18T18:51:14.015Z,13.60
2022-09-18T18:53:44.402Z,13.60
2022-09-18T18:56:13.810Z,13.60
2022-09-18T18:58:41.061Z,13.50
2022-09-18T19:01:16.904Z,13.60
2022-09-18T19:03:56.120Z,13.60
2022-09-18T19:06:25.358Z,13.60
2022-09-18T19:09:15.129Z,13.50
2022-09-18T19:11:54.011Z,13.50
2022-09-18T19:14:23.357Z,13.60
2022-09-18T19:16:51.030Z,13.60
2022-09-18T19:19:19.848Z,13.60
2022-09-18T19:21:47.585Z,13.60
2022-09-18T19:24:15.690Z,13.60
2022-09-18T19:26:43.013Z,13.60
2022-09-18T19:29:13.271Z,13.60
2022-09-18T19:31:42.473Z,13.60
2022-09-18T19:34:11.764Z,13.60
2022-09-18T19:36:38.459Z,13.60
2022-09-18T19:39:06.671Z,13.60
2022-09-18T19:42:03.265Z,13.60
2022-09-18T19:44:48.730Z,13.70
2022-09-18T19:47:33.977Z,13.60
2022-09-18T19:50:03.121Z,13.60
2022-09-18T19:52:29.808Z,13.50
2022-09-18T19:54:57.993Z,13.60
2022-09-18T19:57:26.411Z,13.50
2022-09-18T19:59:55.011Z,13.50
2022-09-18T20:02:22.893Z,13.50
2022-09-18T20:04:50.018Z,13.50
2022-09-18T20:07:16.687Z,13.60
2022-09-18T20:09:43.427Z,13.50
2022-09-18T20:12:10.279Z,13.60
2022-09-18T20:14:36.986Z,13.60
2022-09-18T20:17:03.697Z,13.60
2022-09-18T20:19:30.306Z,13.50
2022-09-18T20:21:56.922Z,13.50
2022-09-18T20:24:23.646Z,13.50
2022-09-18T20:26:51.328Z,13.40
2022-09-18T20:29:18.013Z,13.50
2022-09-18T20:31:45.911Z,13.50
2022-09-18T20:34:12.889Z,13.50
2022-09-18T20:36:39.486Z,13.50
2022-09-18T20:39:06.301Z,13.40
2022-09-18T20:41:33.070Z,13.50
2022-09-18T20:44:03.111Z,13.40
2022-09-18T20:46:30.954Z,13.40
2022-09-18T20:49:00.534Z,13.40
2022-09-18T20:51:35.948Z,13.40
2022-09-18T20:54:07.896Z,13.30
2022-09-18T20:56:41.106Z,13.40
2022-09-18T20:59:10.063Z,13.30
2022-09-18T21:01:41.803Z,13.40
2022-09-18T21:04:17.136Z,13.30
2022-09-18T21:06:45.989Z,13.40
2022-09-18T21:09:12.685Z,13.40
2022-09-18T21:11:41.887Z,13.50
2022-09-18T21:14:11.826Z,13.40
2022-09-18T21:16:43.421Z,13.40
2022-09-18T21:19:16.918Z,13.30
2022-09-18T21:21:43.542Z,13.40
2022-09-18T21:24:10.854Z,13.40
2022-09-18T21:26:47.719Z,13.40
2022-09-18T21:29:17.882Z,13.50
2022-09-18T21:31:45.899Z,13.50
2022-09-18T21:34:15.733Z,13.50
2022-09-18T21:36:46.126Z,13.50
2022-09-18T21:39:14.307Z,13.50
2022-09-18T21:41:45.882Z,13.50
2022-09-18T21:44:14.826Z,13.50
2022-09-18T21:46:43.100Z,13.50
2022-09-18T21:49:10.135Z,13.50
2022-09-18T21:51:41.481Z,13.50
2022-09-18T21:54:11.915Z,13.40
2022-09-18T21:56:38.583Z,13.50
2022-09-18T21:59:05.513Z,13.40
2022-09-18T22:01:32.247Z,13.50
2022-09-18T22:04:02.052Z,13.50
2022-09-18T22:06:40.342Z,13.40
2022-09-18T22:09:10.758Z,13.40
2022-09-18T22:11:38.642Z,13.50
2022-09-18T22:14:12.686Z,13.50
2022-09-18T22:16:39.891Z,13.50
2022-09-18T22:19:10.725Z,13.40
2022-09-18T22:21:39.973Z,13.30
2022-09-18T22:24:10.026Z,13.30
2022-09-18T22:26:43.008Z,13.40
2022-09-18T22:29:15.579Z,13.40
2022-09-18T22:31:42.226Z,13.40
2022-09-18T22:34:08.895Z,13.40
2022-09-18T22:36:35.508Z,13.30
2022-09-18T22:39:02.126Z,13.40
2022-09-18T22:41:28.919Z,13.30
2022-09-18T22:43:56.777Z,13.40
2022-09-18T22:46:25.535Z,13.40
2022-09-18T22:48:52.570Z,13.40
2022-09-18T22:51:26.734Z,13.40
2022-09-18T22:53:56.151Z,13.40
2022-09-18T22:56:24.631Z,13.40
2022-09-18T22:58:52.227Z,13.50
2022-09-18T23:01:37.005Z,13.40
2022-09-18T23:04:05.165Z,13.40
2022-09-18T23:06:33.463Z,13.40
2022-09-18T23:09:01.015Z,13.40
2022-09-18T23:11:30.769Z,13.40
2022-09-18T23:14:02.402Z,13.50
2022-09-18T23:16:30.814Z,13.50
2022-09-18T23:19:00.810Z,13.40
2022-09-18T23:21:31.382Z,13.40
2022-09-18T23:24:07.049Z,13.40
2022-09-18T23:26:38.237Z,13.40
2022-09-18T23:29:07.730Z,13.40
2022-09-18T23:31:37.306Z,13.40
2022-09-18T23:34:14.336Z,13.40
2022-09-18T23:36:44.530Z,13.40
2022-09-18T23:39:14.553Z,13.40
2022-09-18T23:41:42.471Z,13.40
2022-09-18T23:44:12.067Z,13.40
2022-09-18T23:46:39.350Z,13.30
2022-09-18T23:49:08.251Z,13.40
2022-09-18T23:51:37.329Z,13.40
2022-09-18T23:54:06.549Z,13.40
2022-09-18T23:56:34.841Z,13.40
2022-09-18T23:59:04.537Z,13.40
